Time;durP1;ratioP1;P1;durP2;ratioP2;P2;SDS_P1;SDS_P2;PMS_P1;PMS_P2;Temp;Humidity;BMP_temperature;BMP_pressure;BME280_temperature;BME280_humidity;BME280_pressure;Samples;Min_cycle;Max_cycle;Signal;HPM_P1;HPM_P2
2023/01/30 00:00:35;;;;;;;22.02;13.55;;;;;;;-0.32;69.80;94892.47;4147086;28;20381;-64
2023/01/30 00:02:37;;;;;;;23.33;14.05;;;;;;;-0.64;70.97;94900.31;4146875;28;20070;-62
2023/01/30 00:04:38;;;;;;;24.23;14.32;;;;;;;-0.53;71.74;94897.13;4147736;28;20559;-61
2023/01/30 00:06:41;;;;;;;26.90;15.50;;;;;;;-0.60;72.03;94891.50;4141497;28;20066;-62
2023/01/30 00:08:43;;;;;;;25.20;16.02;;;;;;;-0.72;72.12;94892.19;4144082;28;20049;-63
2023/01/30 00:10:45;;;;;;;29.55;15.77;;;;;;;-0.84;72.85;94886.81;4133769;28;20060;-61
2023/01/30 00:12:47;;;;;;;26.77;16.13;;;;;;;-0.84;73.06;94889.38;4128564;28;20058;-61
2023/01/30 00:14:48;;;;;;;26.92;14.93;;;;;;;-0.94;73.20;94884.84;4145185;28;20104;-62
2023/01/30 00:16:50;;;;;;;26.88;16.20;;;;;;;-1.07;73.24;94882.94;4136489;28;20260;-61
2023/01/30 00:18:52;;;;;;;23.02;15.07;;;;;;;-1.12;73.58;94889.22;4147678;28;20570;-64
2023/01/30 00:20:58;;;;;;;27.20;15.73;;;;;;;-1.16;74.19;94892.88;4147594;28;20141;-63
2023/01/30 00:23:00;;;;;;;27.50;15.35;;;;;;;-1.08;74.15;94876.13;4146770;28;20054;-64
2023/01/30 00:25:02;;;;;;;23.38;14.73;;;;;;;-1.13;73.85;94880.69;4147520;28;20046;-64
2023/01/30 00:27:04;;;;;;;23.90;14.15;;;;;;;-1.36;74.63;94887.09;4145906;28;20107;-63
2023/01/30 00:29:05;;;;;;;24.65;15.15;;;;;;;-1.45;75.07;94890.97;4146796;28;20433;-62
2023/01/30 00:31:08;;;;;;;25.92;16.23;;;;;;;-1.31;75.03;94890.25;4146404;28;20053;-63
2023/01/30 00:33:10;;;;;;;24.90;16.42;;;;;;;-1.26;74.53;94882.28;4146708;28;20050;-63
2023/01/30 00:35:13;;;;;;;28.23;16.90;;;;;;;-1.29;75.00;94888.44;4144068;28;20081;-63
2023/01/30 00:37:14;;;;;;;26.13;16.45;;;;;;;-1.20;75.64;94886.28;4146938;28;20049;-64
2023/01/30 00:39:16;;;;;;;29.55;17.75;;;;;;;-1.34;75.29;94890.41;4140040;28;20054;-63
2023/01/30 00:41:18;;;;;;;26.55;17.13;;;;;;;-1.56;76.30;94887.34;4130509;28;20161;-63
2023/01/30 00:48:02;;;;;;;30.92;17.27;;;;;;;-1.63;76.81;94870.56;4129583;28;20101;-60
2023/01/30 00:50:05;;;;;;;29.10;16.30;;;;;;;-1.57;76.73;94871.09;4143310;28;20047;-61
2023/01/30 00:52:06;;;;;;;29.30;17.33;;;;;;;-1.59;76.40;94864.34;4130775;28;20061;-61
2023/01/30 00:54:08;;;;;;;27.92;17.13;;;;;;;-1.59;76.52;94865.22;4130727;28;20057;-64
2023/01/30 00:56:10;;;;;;;28.48;17.17;;;;;;;-1.73;77.08;94867.66;4130603;28;20488;-64
2023/01/30 00:58:12;;;;;;;29.25;16.83;;;;;;;-1.79;77.09;94867.97;4116970;28;20088;-63
2023/01/30 01:00:16;;;;;;;30.23;17.48;;;;;;;-1.62;77.22;94860.22;4138948;28;20042;-65
2023/01/30 01:02:18;;;;;;;28.75;17.63;;;;;;;-1.48;76.31;94865.44;4143299;28;20104;-63
2023/01/30 01:04:20;;;;;;;28.15;16.13;;;;;;;-1.55;76.42;94863.28;4146656;28;20048;-63
2023/01/30 01:06:21;;;;;;;26.60;16.00;;;;;;;-1.61;76.44;94859.31;4145028;28;20073;-62
2023/01/30 01:08:23;;;;;;;27.42;16.98;;;;;;;-1.66;77.03;94863.84;4146626;28;20050;-63
2023/01/30 01:10:25;;;;;;;27.70;16.83;;;;;;;-1.79;77.03;94863.66;4145412;28;20085;-63
2023/01/30 01:12:26;;;;;;;27.30;16.23;;;;;;;-1.87;77.34;94863.28;4127788;28;20604;-64
2023/01/30 01:14:28;;;;;;;25.13;15.38;;;;;;;-1.83;77.51;94856.22;4146315;28;20128;-63
2023/01/30 01:16:32;;;;;;;27.33;15.85;;;;;;;-1.64;77.36;94859.47;4146199;28;20066;-63
2023/01/30 01:18:33;;;;;;;27.65;16.45;;;;;;;-1.75;76.74;94854.06;4146487;28;20411;-62
2023/01/30 01:20:35;;;;;;;28.30;17.17;;;;;;;-1.73;77.25;94855.66;4143226;28;20054;-61
2023/01/30 01:22:37;;;;;;;28.00;16.98;;;;;;;-1.72;77.16;94841.91;4136523;28;20108;-63
2023/01/30 01:24:38;;;;;;;30.48;17.90;;;;;;;-1.72;77.59;94839.34;4136076;28;20054;-64
2023/01/30 01:26:40;;;;;;;29.65;17.30;;;;;;;-1.81;77.06;94833.84;4142701;28;20050;-64
2023/01/30 01:28:42;;;;;;;26.63;16.98;;;;;;;-1.81;77.65;94842.38;4128908;28;20054;-64
2023/01/30 01:30:43;;;;;;;30.85;17.45;;;;;;;-1.82;77.40;94839.91;4137926;28;20057;-65
2023/01/30 01:32:46;;;;;;;29.10;16.95;;;;;;;-1.74;77.18;94838.59;4135312;28;20061;-62
2023/01/30 01:34:48;;;;;;;29.33;17.35;;;;;;;-1.77;77.03;94830.22;4140907;28;20057;-62
2023/01/30 01:36:49;;;;;;;28.45;16.80;;;;;;;-1.69;76.77;94826.31;4146240;28;20485;-63
2023/01/30 01:38:55;;;;;;;26.10;15.82;;;;;;;-1.62;76.15;94826.00;4128846;28;20050;-63
2023/01/30 01:41:04;;;;;;;26.90;16.50;;;;;;;-1.66;76.18;94827.88;4146188;28;20046;-61
2023/01/30 01:43:23;;;;;;;24.55;15.30;;;;;;;-1.58;76.42;94836.03;4145337;28;20408;-63
2023/01/30 01:45:25;;;;;;;24.48;15.32;;;;;;;-1.57;75.99;94832.56;4145650;28;20050;-61
2023/01/30 01:47:27;;;;;;;26.13;16.02;;;;;;;-1.63;75.67;94838.03;4146611;28;20495;-61
2023/01/30 01:49:31;;;;;;;26.40;15.90;;;;;;;-1.75;76.00;94847.19;4129034;28;20433;-61
2023/01/30 01:51:33;;;;;;;24.48;15.40;;;;;;;-1.79;76.06;94832.84;4126162;28;20050;-61
2023/01/30 01:53:44;;;;;;;26.70;15.55;;;;;;;-1.73;75.98;94836.84;4137890;28;20054;-63
2023/01/30 01:55:49;;;;;;;25.77;14.48;;;;;;;-1.75;75.98;94831.78;4141795;28;20516;-60
2023/01/30 01:58:01;;;;;;;26.13;14.15;;;;;;;-1.58;75.21;94832.63;4127535;28;20511;-62
2023/01/30 02:00:12;;;;;;;28.88;16.35;;;;;;;-1.46;74.78;94832.78;4145593;28;20108;-62
2023/01/30 02:02:14;;;;;;;21.77;12.82;;;;;;;-1.29;73.71;94828.47;4141629;28;20057;-62
2023/01/30 02:05:00;;;;;;;23.50;13.35;;;;;;;-1.09;72.99;94843.63;4146303;28;20077;-61
2023/01/30 02:06:38;;;;;;;25.75;12.95;;;;;;;-0.93;71.64;94843.59;4130520;28;20053;-61
2023/01/30 02:08:44;;;;;;;17.90;11.13;;;;;;;-1.08;70.76;94836.72;4145157;28;20129;-62
2023/01/30 02:11:21;;;;;;;16.92;10.07;;;;;;;-1.31;71.86;94832.88;4128942;28;20050;-63
2023/01/30 02:13:23;;;;;;;17.30;11.32;;;;;;;-1.11;71.42;94835.16;4127797;28;20597;-63
2023/01/30 02:15:25;;;;;;;17.48;9.77;;;;;;;-1.29;71.33;94831.03;4129705;28;20464;-61
2023/01/30 02:17:27;;;;;;;16.00;10.82;;;;;;;-1.35;71.60;94842.50;4129797;28;20162;-62
2023/01/30 02:19:36;;;;;;;16.02;10.35;;;;;;;-1.36;72.37;94840.81;4130670;28;20053;-62
2023/01/30 02:21:38;;;;;;;17.02;10.98;;;;;;;-1.26;71.73;94841.16;4127898;28;20141;-62
2023/01/30 02:23:58;;;;;;;17.58;10.50;;;;;;;-1.10;71.47;94838.56;4123573;28;20058;-62
2023/01/30 02:26:38;;;;;;;17.52;11.50;;;;;;;-0.97;71.20;94834.38;4123923;28;20085;-64
2023/01/30 02:28:45;;;;;;;17.73;10.55;;;;;;;-0.79;70.13;94845.41;4118452;28;20046;-63
2023/01/30 02:31:21;;;;;;;19.33;11.25;;;;;;;-0.90;70.51;94840.03;4132152;28;20054;-62
2023/01/30 02:33:35;;;;;;;18.73;10.68;;;;;;;-0.84;70.13;94835.38;4117353;28;20055;-65
2023/01/30 02:35:39;;;;;;;16.55;10.23;;;;;;;-0.80;70.23;94837.75;4120424;28;20050;-64
2023/01/30 02:38:07;;;;;;;20.48;11.85;;;;;;;-0.90;70.40;94837.47;4123684;28;20060;-62
2023/01/30 02:40:24;;;;;;;19.77;10.98;;;;;;;-1.06;70.91;94832.34;4131399;28;20516;-61
2023/01/30 02:42:41;;;;;;;20.25;11.10;;;;;;;-1.04;71.21;94838.22;4115441;28;20046;-64
2023/01/30 02:44:44;;;;;;;20.20;12.05;;;;;;;-1.27;72.19;94830.06;4127130;28;20057;-62
2023/01/30 02:46:56;;;;;;;23.42;12.75;;;;;;;-1.29;72.70;94826.75;4129819;28;20109;-60
2023/01/30 02:49:23;;;;;;;22.77;13.43;;;;;;;-1.23;72.50;94825.56;4127399;28;20058;-62
2023/01/30 02:51:29;;;;;;;23.67;13.10;;;;;;;-1.08;72.40;94821.31;4119670;28;20103;-61
2023/01/30 02:53:32;;;;;;;17.40;10.90;;;;;;;-0.86;71.60;94819.19;4126614;28;20065;-62
2023/01/30 02:55:34;;;;;;;20.70;11.00;;;;;;;-0.79;70.58;94813.72;4117835;28;20512;-62
2023/01/30 02:57:36;;;;;;;17.45;11.10;;;;;;;-1.24;71.51;94819.59;4120245;28;20130;-61
2023/01/30 02:59:41;;;;;;;19.35;11.38;;;;;;;-1.26;71.87;94829.13;4122592;28;20046;-63
2023/01/30 03:02:04;;;;;;;18.45;10.93;;;;;;;-1.35;72.10;94827.06;4131023;28;20081;-63
2023/01/30 03:04:26;;;;;;;18.27;11.50;;;;;;;-1.15;71.83;94831.09;4132129;28;20477;-60
2023/01/30 03:06:43;;;;;;;19.70;12.32;;;;;;;-1.10;71.61;94838.56;4122932;28;20097;-61
2023/01/30 03:09:18;;;;;;;20.05;12.60;;;;;;;-1.14;71.42;94831.94;4119869;28;20149;-62
2023/01/30 03:11:24;;;;;;;20.85;11.05;;;;;;;-1.18;71.37;94825.28;4143816;28;20038;-63
2023/01/30 03:13:47;;;;;;;19.13;11.75;;;;;;;-1.10;70.95;94821.41;4118122;28;20046;-63
2023/01/30 03:16:04;;;;;;;18.90;11.52;;;;;;;-1.20;71.30;94816.88;4131043;28;20047;-62
2023/01/30 03:18:06;;;;;;;17.05;11.15;;;;;;;-1.13;71.39;94813.84;4144474;28;20137;-62
2023/01/30 03:20:09;;;;;;;18.08;10.23;;;;;;;-1.21;71.63;94808.31;4131497;28;20149;-61
2023/01/30 03:22:11;;;;;;;19.95;10.85;;;;;;;-1.57;71.82;94809.44;4129870;28;20452;-62
2023/01/30 03:24:13;;;;;;;16.95;10.57;;;;;;;-1.55;72.20;94799.91;4130561;28;20081;-62
2023/01/30 03:26:21;;;;;;;20.10;10.52;;;;;;;-1.38;72.25;94796.38;4139764;28;20305;-63
2023/01/30 03:28:23;;;;;;;17.15;10.40;;;;;;;-1.16;71.44;94806.31;4129830;28;20085;-62
2023/01/30 03:30:25;;;;;;;18.15;11.23;;;;;;;-1.13;71.06;94793.28;4130678;28;20484;-63
2023/01/30 03:32:27;;;;;;;17.65;11.13;;;;;;;-1.03;71.20;94791.03;4132221;28;20054;-62
2023/01/30 03:34:29;;;;;;;18.52;10.52;;;;;;;-1.26;71.03;94789.75;4141659;28;20045;-62
2023/01/30 03:36:30;;;;;;;17.20;11.23;;;;;;;-1.52;72.58;94789.44;4135381;28;20421;-63
2023/01/30 03:38:33;;;;;;;21.08;12.50;;;;;;;-1.72;73.50;94790.53;4144181;28;20062;-61
2023/01/30 03:40:35;;;;;;;19.70;11.02;;;;;;;-1.70;73.98;94785.31;4121898;28;20054;-63
2023/01/30 03:42:36;;;;;;;20.10;11.13;;;;;;;-1.72;73.82;94790.53;4129361;28;20111;-62
2023/01/30 03:44:38;;;;;;;18.80;12.15;;;;;;;-1.74;73.71;94787.22;4131672;28;20108;-62
2023/01/30 03:46:40;;;;;;;20.83;12.85;;;;;;;-1.64;74.28;94792.69;4132540;28;20073;-62
2023/01/30 03:48:41;;;;;;;21.60;12.05;;;;;;;-1.43;73.60;94793.25;4132702;28;20058;-61
2023/01/30 03:50:43;;;;;;;17.83;11.63;;;;;;;-1.21;72.64;94794.63;4143062;28;20539;-61
2023/01/30 03:52:44;;;;;;;20.00;12.57;;;;;;;-1.05;71.70;94785.16;4147473;28;20141;-60
2023/01/30 03:54:46;;;;;;;19.30;12.45;;;;;;;-0.90;70.92;94783.47;4147329;28;20108;-60
2023/01/30 03:56:48;;;;;;;19.90;11.57;;;;;;;-0.79;70.12;94782.84;4146909;28;20049;-60
2023/01/30 03:58:49;;;;;;;20.73;12.48;;;;;;;-0.90;71.21;94776.56;4147140;28;20153;-63
2023/01/30 04:00:51;;;;;;;19.90;11.57;;;;;;;-1.37;72.40;94789.53;4144707;28;20140;-61
2023/01/30 04:02:54;;;;;;;20.65;13.25;;;;;;;-1.41;73.25;94785.47;4147907;28;20041;-63
2023/01/30 04:04:55;;;;;;;20.58;12.15;;;;;;;-1.31;72.93;94782.31;4148221;28;20050;-61
2023/01/30 04:06:57;;;;;;;19.80;11.57;;;;;;;-1.19;72.54;94785.91;4147762;28;20050;-61
2023/01/30 04:08:58;;;;;;;19.98;12.13;;;;;;;-1.09;72.35;94781.91;4148667;28;20053;-61
2023/01/30 04:11:00;;;;;;;20.55;12.15;;;;;;;-0.99;72.04;94771.94;4148192;28;20058;-62
2023/01/30 04:13:01;;;;;;;21.40;12.85;;;;;;;-0.94;71.66;94782.78;4146320;28;20050;-61
2023/01/30 04:15:04;;;;;;;20.52;12.85;;;;;;;-1.01;71.66;94778.06;4134935;28;20046;-62
2023/01/30 04:17:05;;;;;;;20.55;12.77;;;;;;;-0.97;71.63;94777.81;4148661;28;20042;-61
2023/01/30 04:19:07;;;;;;;21.40;12.50;;;;;;;-1.00;71.56;94780.56;4147823;28;20092;-62
2023/01/30 04:21:09;;;;;;;17.70;11.75;;;;;;;-1.11;72.12;94780.34;4145455;28;20081;-62
2023/01/30 04:23:10;;;;;;;21.63;13.02;;;;;;;-1.19;72.48;94778.19;4136467;28;20698;-62
2023/01/30 04:25:12;;;;;;;21.77;12.40;;;;;;;-1.46;73.72;94783.16;4139818;28;20611;-62
2023/01/30 04:27:14;;;;;;;20.05;12.55;;;;;;;-1.66;74.52;94779.09;4129770;28;20109;-62
2023/01/30 04:29:15;;;;;;;21.20;12.75;;;;;;;-1.56;74.56;94779.44;4132931;28;20050;-62
2023/01/30 04:31:17;;;;;;;21.65;13.25;;;;;;;-1.51;74.24;94785.94;4142131;28;20078;-61
2023/01/30 04:33:19;;;;;;;20.02;12.27;;;;;;;-1.34;73.92;94782.47;4129992;28;20385;-62
2023/01/30 04:35:20;;;;;;;21.40;13.05;;;;;;;-1.19;73.43;94785.91;4131523;28;20050;-62
2023/01/30 04:37:22;;;;;;;20.38;12.70;;;;;;;-1.00;73.06;94779.75;4133647;28;20050;-63
2023/01/30 04:39:24;;;;;;;20.65;12.85;;;;;;;-0.92;72.24;94778.41;4141449;28;20069;-64
2023/01/30 04:41:25;;;;;;;22.73;13.27;;;;;;;-0.87;71.94;94772.97;4129346;28;20046;-62
2023/01/30 04:43:27;;;;;;;22.95;13.95;;;;;;;-0.81;72.19;94770.06;4129738;28;20109;-63
2023/01/30 04:45:29;;;;;;;22.27;13.30;;;;;;;-0.94;72.35;94779.41;4145273;28;20053;-61
2023/01/30 04:47:31;;;;;;;22.23;12.63;;;;;;;-1.02;72.74;94771.28;4146589;28;20089;-62
2023/01/30 04:49:33;;;;;;;22.05;12.65;;;;;;;-1.33;73.14;94773.03;4146472;28;20480;-62
2023/01/30 04:51:34;;;;;;;23.48;14.27;;;;;;;-1.37;73.99;94772.38;4146658;28;20050;-63
2023/01/30 04:53:36;;;;;;;22.67;13.88;;;;;;;-1.19;74.13;94764.53;4143681;28;20497;-63
2023/01/30 04:55:38;;;;;;;24.50;14.88;;;;;;;-1.14;73.63;94758.22;4137676;28;20112;-63
2023/01/30 04:57:39;;;;;;;24.70;13.65;;;;;;;-1.29;74.22;94749.63;4143612;28;20046;-62
2023/01/30 04:59:41;;;;;;;22.70;13.73;;;;;;;-1.18;74.15;94755.88;4146671;28;20500;-63
2023/01/30 05:01:43;;;;;;;22.40;12.88;;;;;;;-1.12;73.84;94753.81;4146374;28;20099;-63
2023/01/30 05:03:48;;;;;;;24.30;14.20;;;;;;;-1.03;73.42;94744.75;4136095;28;20054;-63
2023/01/30 05:05:50;;;;;;;26.00;14.27;;;;;;;-1.13;73.83;94754.72;4131627;28;20050;-60
2023/01/30 05:07:52;;;;;;;26.98;14.93;;;;;;;-1.14;74.09;94759.94;4142092;28;20606;-64
2023/01/30 05:09:53;;;;;;;25.67;14.48;;;;;;;-1.25;74.50;94751.13;4113217;28;20054;-63
2023/01/30 05:11:55;;;;;;;28.02;14.70;;;;;;;-1.41;75.34;94755.44;4144970;28;20440;-64
2023/01/30 05:13:57;;;;;;;23.55;15.52;;;;;;;-1.45;75.48;94759.94;4144782;28;20145;-63
2023/01/30 05:15:58;;;;;;;26.63;15.93;;;;;;;-1.71;76.42;94751.09;4136723;28;20054;-63
2023/01/30 05:18:00;;;;;;;29.27;17.50;;;;;;;-1.66;76.65;94748.25;4138151;28;20133;-63
2023/01/30 05:20:03;;;;;;;28.52;17.20;;;;;;;-1.68;77.13;94750.94;4129130;28;20074;-62
2023/01/30 05:22:04;;;;;;;26.95;17.17;;;;;;;-1.54;76.83;94759.63;4139268;28;20054;-63
2023/01/30 05:24:07;;;;;;;28.00;17.70;;;;;;;-1.58;76.71;94765.84;4140672;28;20105;-63
2023/01/30 05:26:10;;;;;;;29.00;17.38;;;;;;;-1.72;77.02;94762.28;4144715;28;20166;-63
2023/01/30 05:28:12;;;;;;;34.33;19.27;;;;;;;-1.59;76.99;94764.16;4128307;28;20489;-64
2023/01/30 05:30:14;;;;;;;27.90;17.25;;;;;;;-1.68;77.11;94763.78;4135703;28;20062;-63
2023/01/30 05:32:17;;;;;;;29.25;17.65;;;;;;;-1.58;77.12;94774.38;4142973;28;20480;-63
2023/01/30 05:34:18;;;;;;;31.55;18.58;;;;;;;-1.72;77.57;94759.72;4133529;28;20045;-68
2023/01/30 05:36:21;;;;;;;31.92;19.05;;;;;;;-1.64;77.62;94772.13;4139183;28;20037;-64
2023/01/30 05:38:24;;;;;;;29.50;18.58;;;;;;;-1.44;77.48;94768.50;4141742;28;20074;-62
2023/01/30 05:40:26;;;;;;;31.08;17.90;;;;;;;-1.33;76.55;94765.31;4136896;28;20066;-66
2023/01/30 05:42:28;;;;;;;28.38;17.48;;;;;;;-1.58;76.98;94769.22;4137453;28;20056;-64
2023/01/30 05:44:30;;;;;;;34.58;19.27;;;;;;;-1.55;77.25;94766.50;4138394;28;20141;-65
2023/01/30 05:46:32;;;;;;;30.17;17.15;;;;;;;-1.56;77.65;94774.28;4146339;28;20595;-62
2023/01/30 05:48:33;;;;;;;32.80;18.23;;;;;;;-1.55;76.96;94766.50;4129070;28;20058;-63
2023/01/30 05:50:35;;;;;;;32.28;18.95;;;;;;;-1.69;77.51;94769.81;4138913;28;20107;-60
2023/01/30 05:52:37;;;;;;;38.30;19.85;;;;;;;-1.78;78.25;94772.88;4143751;28;20049;-63
2023/01/30 05:54:39;;;;;;;34.67;19.98;;;;;;;-1.74;78.11;94769.25;4135603;28;20456;-63
2023/01/30 05:56:40;;;;;;;37.42;20.23;;;;;;;-1.70;78.55;94775.03;4138653;28;20042;-65
2023/01/30 05:58:42;;;;;;;35.50;19.20;;;;;;;-1.77;78.23;94769.41;4144244;28;20045;-64
2023/01/30 06:00:44;;;;;;;34.40;20.10;;;;;;;-1.57;78.46;94780.31;4144805;28;20050;-62
2023/01/30 06:02:45;;;;;;;37.38;21.48;;;;;;;-1.62;77.19;94777.19;4142951;28;20051;-63
2023/01/30 06:04:47;;;;;;;36.95;20.52;;;;;;;-1.80;77.87;94779.84;4144752;28;20438;-64
2023/01/30 06:06:49;;;;;;;30.73;19.00;;;;;;;-1.64;77.74;94784.97;4111952;28;20129;-63
2023/01/30 06:08:52;;;;;;;36.20;21.55;;;;;;;-1.54;77.80;94780.19;4145708;28;20107;-61
2023/01/30 06:10:54;;;;;;;35.08;20.52;;;;;;;-1.53;77.09;94782.63;4128652;28;20089;-65
2023/01/30 06:12:56;;;;;;;37.67;20.88;;;;;;;-1.76;77.22;94777.94;4127340;28;20046;-62
2023/01/30 06:14:57;;;;;;;35.83;21.02;;;;;;;-1.88;78.22;94782.81;4145300;28;20092;-64
2023/01/30 06:16:59;;;;;;;39.38;22.75;;;;;;;-1.99;78.30;94779.19;4143895;28;20046;-62
2023/01/30 06:19:01;;;;;;;40.55;23.00;;;;;;;-1.80;79.12;94777.28;4146186;28;20129;-64
2023/01/30 06:21:03;;;;;;;46.05;23.00;;;;;;;-1.75;78.84;94772.72;4145065;28;20057;-63
2023/01/30 06:23:04;;;;;;;40.60;22.90;;;;;;;-1.70;78.29;94773.31;4133075;28;20046;-64
2023/01/30 06:25:07;;;;;;;41.63;22.58;;;;;;;-1.83;78.24;94764.59;4138591;28;20102;-62
2023/01/30 06:27:09;;;;;;;43.45;23.67;;;;;;;-1.83;78.67;94763.75;4127154;28;20085;-63
2023/01/30 06:29:11;;;;;;;45.17;24.55;;;;;;;-1.92;78.85;94759.97;4143204;28;20058;-63
2023/01/30 06:31:12;;;;;;;48.50;25.70;;;;;;;-1.82;78.74;94766.25;4128799;28;20461;-64
2023/01/30 06:33:14;;;;;;;45.08;26.42;;;;;;;-1.93;78.65;94771.16;4137756;28;20412;-64
2023/01/30 06:35:16;;;;;;;44.45;24.40;;;;;;;-2.14;78.92;94773.94;4141310;28;20077;-62
2023/01/30 06:37:18;;;;;;;45.65;25.52;;;;;;;-2.01;79.62;94760.47;4145401;28;20070;-64
2023/01/30 06:39:20;;;;;;;46.95;24.85;;;;;;;-2.01;79.45;94766.41;4146052;28;20054;-63
2023/01/30 06:41:21;;;;;;;53.15;26.42;;;;;;;-2.04;79.45;94770.88;4145436;28;20165;-64
2023/01/30 06:43:23;;;;;;;47.08;26.55;;;;;;;-2.06;79.51;94776.94;4144884;28;20137;-63
2023/01/30 06:45:24;;;;;;;45.28;27.13;;;;;;;-2.20;79.57;94774.25;4145155;28;20132;-63
2023/01/30 06:47:26;;;;;;;50.17;28.90;;;;;;;-2.14;79.11;94766.22;4145773;28;20042;-62
2023/01/30 06:49:28;;;;;;;50.42;27.17;;;;;;;-2.10;79.87;94780.56;4146189;28;20046;-62
2023/01/30 06:51:31;;;;;;;52.55;27.83;;;;;;;-1.91;79.60;94769.34;4145640;28;20074;-63
2023/01/30 06:53:32;;;;;;;50.80;27.37;;;;;;;-1.72;78.95;94775.13;4145611;28;20149;-63
2023/01/30 06:55:34;;;;;;;45.72;24.40;;;;;;;-1.71;78.33;94776.78;4145975;28;20061;-63
2023/01/30 06:57:36;;;;;;;47.05;24.77;;;;;;;-1.86;78.02;94775.84;4144275;28;20053;-64
2023/01/30 06:59:38;;;;;;;44.25;25.60;;;;;;;-2.12;78.72;94782.38;4145198;28;20065;-62
2023/01/30 07:01:40;;;;;;;45.88;26.02;;;;;;;-2.08;79.11;94783.88;4144946;28;20057;-61
2023/01/30 07:03:41;;;;;;;44.05;24.48;;;;;;;-2.06;78.84;94778.69;4145262;28;20124;-62
2023/01/30 07:05:45;;;;;;;43.22;23.45;;;;;;;-2.11;78.11;94780.63;4144073;28;20540;-60
2023/01/30 07:07:46;;;;;;;42.13;23.80;;;;;;;-1.91;77.70;94779.59;4143052;28;20046;-61
2023/01/30 07:09:48;;;;;;;41.85;22.42;;;;;;;-1.70;77.25;94785.31;4147348;28;20148;-61
2023/01/30 07:12:07;;;;;;;37.15;22.73;;;;;;;-1.51;76.45;94790.28;4130840;28;20050;-63
2023/01/30 07:14:09;;;;;;;37.08;21.13;;;;;;;-1.35;76.23;94790.28;4132177;28;20054;-65
2023/01/30 07:16:10;;;;;;;38.17;20.55;;;;;;;-1.22;75.41;94783.53;4132694;28;20105;-62
2023/01/30 07:18:12;;;;;;;35.58;20.73;;;;;;;-1.30;74.80;94789.09;4135909;28;20042;-63
2023/01/30 07:20:14;;;;;;;38.38;21.13;;;;;;;-1.29;74.57;94784.75;4148542;28;20096;-63
2023/01/30 07:22:16;;;;;;;37.03;21.20;;;;;;;-1.24;74.85;94791.31;4147444;28;20054;-62
2023/01/30 07:24:18;;;;;;;37.65;21.50;;;;;;;-1.18;74.83;94797.03;4146736;28;20049;-63
2023/01/30 07:26:20;;;;;;;37.88;21.42;;;;;;;-1.05;74.51;94782.59;4147314;28;20042;-62
2023/01/30 07:28:22;;;;;;;41.75;21.42;;;;;;;-0.92;73.83;94786.09;4146594;28;20497;-63
2023/01/30 07:30:25;;;;;;;34.00;18.23;;;;;;;-0.97;73.73;94790.66;4147021;28;20046;-63
2023/01/30 07:32:27;;;;;;;32.33;19.30;;;;;;;-0.97;73.42;94793.25;4130759;28;20058;-66
2023/01/30 07:34:28;;;;;;;33.92;18.17;;;;;;;-0.84;73.30;94795.94;4148328;28;20049;-65
2023/01/30 07:36:33;;;;;;;32.00;17.83;;;;;;;-0.85;73.13;94794.28;4147051;28;20046;-65
2023/01/30 07:38:35;;;;;;;36.42;20.08;;;;;;;-0.69;73.32;94797.66;4146828;28;20495;-62
2023/01/30 07:40:37;;;;;;;34.60;18.92;;;;;;;-0.60;72.64;94806.59;4146879;28;20511;-64
2023/01/30 07:42:38;;;;;;;36.40;19.90;;;;;;;-0.51;72.24;94797.50;4147010;28;20049;-62
2023/01/30 07:44:40;;;;;;;32.83;19.00;;;;;;;-0.52;71.71;94804.38;4146575;28;20132;-65
2023/01/30 07:46:42;;;;;;;33.10;18.15;;;;;;;-0.53;71.90;94800.16;4148304;28;20447;-63
2023/01/30 07:48:44;;;;;;;38.20;18.73;;;;;;;-0.44;71.70;94798.78;4147143;28;20462;-64
2023/01/30 07:50:46;;;;;;;32.78;18.52;;;;;;;-0.52;71.73;94796.66;4147135;28;20054;-62
2023/01/30 07:52:47;;;;;;;28.23;16.77;;;;;;;-0.49;71.19;94799.06;4148014;28;20546;-65
2023/01/30 07:54:49;;;;;;;28.55;15.98;;;;;;;-0.44;70.98;94794.47;4146051;28;20065;-64
2023/01/30 07:56:51;;;;;;;28.95;15.85;;;;;;;-0.38;70.94;94787.31;4136383;28;20112;-65
2023/01/30 07:58:54;;;;;;;32.75;16.83;;;;;;;-0.37;70.92;94783.81;4147407;28;20076;-64
2023/01/30 08:00:55;;;;;;;28.55;16.90;;;;;;;-0.37;70.58;94768.38;4146866;28;20056;-65
2023/01/30 08:02:57;;;;;;;31.73;16.35;;;;;;;-0.33;70.62;94772.41;4147095;28;20193;-64
2023/01/30 08:04:59;;;;;;;29.67;16.67;;;;;;;-0.30;70.85;94764.50;4147740;28;20052;-66
2023/01/30 08:07:01;;;;;;;30.83;17.83;;;;;;;-0.28;70.45;94762.66;4147304;28;20053;-65
2023/01/30 08:09:03;;;;;;;31.17;16.98;;;;;;;-0.30;70.50;94761.91;4146151;28;20136;-64
2023/01/30 08:11:05;;;;;;;32.95;17.70;;;;;;;-0.14;70.54;94760.09;4139376;28;20050;-65
2023/01/30 08:13:06;;;;;;;35.38;17.75;;;;;;;-0.12;70.27;94760.81;4133815;28;20058;-64
2023/01/30 08:15:09;;;;;;;31.20;17.63;;;;;;;-0.09;70.26;94760.63;4147584;28;20058;-65
2023/01/30 08:17:10;;;;;;;31.67;18.67;;;;;;;-0.06;69.39;94759.63;4130051;28;20097;-64
2023/01/30 08:19:12;;;;;;;31.75;16.60;;;;;;;-0.04;69.97;94756.03;4136404;28;20169;-61
2023/01/30 08:21:14;;;;;;;25.55;15.18;;;;;;;-0.02;69.45;94756.78;4132706;28;20577;-64
2023/01/30 08:23:15;;;;;;;27.63;15.30;;;;;;;-0.11;69.40;94759.06;4129706;28;20050;-64
2023/01/30 08:25:17;;;;;;;33.83;16.50;;;;;;;-0.06;69.28;94755.31;4138550;28;20048;-61
2023/01/30 08:27:19;;;;;;;29.67;16.40;;;;;;;-0.06;69.11;94749.34;4142235;28;20081;-65
2023/01/30 08:29:20;;;;;;;28.23;16.23;;;;;;;0.03;68.86;94753.09;4146939;28;20627;-68
2023/01/30 08:31:22;;;;;;;27.73;16.05;;;;;;;0.04;68.10;94758.13;4147865;28;20042;-65
2023/01/30 08:33:24;;;;;;;27.23;14.88;;;;;;;0.08;68.54;94751.88;4147532;28;20355;-63
2023/01/30 08:35:26;;;;;;;24.73;14.45;;;;;;;0.03;67.78;94741.03;4147602;28;20124;-65
2023/01/30 08:37:28;;;;;;;26.08;15.02;;;;;;;0.12;67.69;94748.19;4134214;28;20050;-65
2023/01/30 08:39:29;;;;;;;24.85;14.80;;;;;;;0.18;67.74;94742.66;4147431;28;20045;-63
2023/01/30 08:41:31;;;;;;;25.45;13.65;;;;;;;0.24;67.39;94740.63;4146928;28;20076;-63
2023/01/30 08:43:33;;;;;;;26.15;14.80;;;;;;;0.15;66.90;94740.28;4145518;28;20062;-64
2023/01/30 08:45:35;;;;;;;24.60;14.02;;;;;;;0.13;66.74;94738.69;4143600;28;20105;-62
2023/01/30 08:47:37;;;;;;;22.52;13.27;;;;;;;0.16;66.78;94743.69;4138289;28;20052;-63
2023/01/30 08:49:38;;;;;;;28.15;13.88;;;;;;;0.19;66.65;94735.75;4147088;28;20046;-64
2023/01/30 08:51:40;;;;;;;21.88;13.48;;;;;;;0.20;66.15;94729.69;4146889;28;20123;-64
2023/01/30 08:53:42;;;;;;;21.17;12.85;;;;;;;0.25;66.49;94732.78;4146901;28;20061;-64
2023/01/30 08:55:44;;;;;;;23.98;12.65;;;;;;;0.26;66.08;94728.47;4147023;28;20065;-65
2023/01/30 08:57:47;;;;;;;23.50;13.25;;;;;;;0.06;65.85;94734.88;4145931;28;20046;-66
2023/01/30 08:59:50;;;;;;;22.83;13.02;;;;;;;0.10;65.94;94732.00;4135350;28;20112;-63
2023/01/30 09:01:51;;;;;;;24.42;13.43;;;;;;;0.16;65.79;94716.16;4140963;28;20464;-65
2023/01/30 09:03:53;;;;;;;21.00;12.98;;;;;;;0.17;65.68;94720.41;4133447;28;20120;-64
2023/01/30 09:05:55;;;;;;;21.17;12.18;;;;;;;0.25;65.80;94717.34;4146206;28;20050;-64
2023/01/30 09:07:56;;;;;;;22.65;12.80;;;;;;;0.23;65.24;94719.19;4142647;28;20038;-64
2023/01/30 09:09:58;;;;;;;21.73;12.15;;;;;;;0.20;65.47;94717.63;4144140;28;20090;-65
2023/01/30 09:12:00;;;;;;;20.83;12.65;;;;;;;0.24;65.75;94715.69;4145810;28;20639;-65
2023/01/30 09:14:02;;;;;;;21.95;12.43;;;;;;;0.05;65.36;94717.78;4146517;28;20056;-65
2023/01/30 09:16:05;;;;;;;21.17;10.93;;;;;;;0.12;65.04;94719.03;4146858;28;20123;-65
2023/01/30 09:18:07;;;;;;;22.80;12.88;;;;;;;0.14;65.39;94722.34;4129566;28;20133;-64
2023/01/30 09:20:09;;;;;;;25.35;12.77;;;;;;;0.24;65.08;94712.28;4146854;28;20052;-63
2023/01/30 09:22:11;;;;;;;17.35;10.77;;;;;;;0.31;64.23;94716.97;4146686;28;20432;-64
2023/01/30 09:24:12;;;;;;;24.88;13.38;;;;;;;-0.09;66.85;94718.59;4147197;28;20046;-65
2023/01/30 09:26:14;;;;;;;22.33;13.43;;;;;;;-0.84;70.34;94708.50;4133473;28;20054;-65
2023/01/30 09:28:16;;;;;;;24.52;14.07;;;;;;;-0.67;70.43;94715.22;4145929;28;20096;-64
2023/01/30 09:30:18;;;;;;;25.65;13.52;;;;;;;-0.86;70.62;94715.47;4136473;28;20054;-63
2023/01/30 09:32:20;;;;;;;28.45;16.73;;;;;;;-1.00;71.59;94723.19;4143345;28;20480;-63